BTK6565 WARA-WIII
Flight info
| Callsign | BTK6565 |
|---|---|
| Flight time | 1h 8m |
| Altitude | 34000 |
| Route | SBR T2 KALUT T6 KURUS |
| Aircraft | A320/M-SDE3FGHIRWY/LB1 |
Departure
| Time | 2026-04-25 09:27 |
|---|---|
| Airport | Abdul Rachman Saleh Airport (WARA) |
Arrival
| Time | 2026-04-25 10:36 |
|---|---|
| Airport | Soekarno-Hatta International Airport (WIII) |
| Time | Latitude | Longitude | Altitude | Speed | Heading |
|---|---|---|---|---|---|
| 2026-04-25 09:09 | -7.93740 | 112.71225 | 1736 ft | 0 kts | 256° |
| 2026-04-25 09:20 | -7.93739 | 112.71230 | 1735 ft | 4 kts | 256° |
| 2026-04-25 09:20 | -7.93734 | 112.71253 | 1735 ft | 2 kts | 256° |
| 2026-04-25 09:21 | -7.93725 | 112.71276 | 1728 ft | 4 kts | 218° |
| 2026-04-25 09:21 | -7.93702 | 112.71282 | 1729 ft | 4 kts | 168° |
| 2026-04-25 09:21 | -7.93697 | 112.71281 | 1735 ft | 0 kts | 166° |
| 2026-04-25 09:23 | -7.93714 | 112.71286 | 1732 ft | 7 kts | 166° |
| 2026-04-25 09:23 | -7.93759 | 112.71297 | 1731 ft | 6 kts | 166° |
| 2026-04-25 09:24 | -7.93803 | 112.71307 | 1733 ft | 8 kts | 167° |
| 2026-04-25 09:24 | -7.93834 | 112.71337 | 1733 ft | 6 kts | 94° |
| 2026-04-25 09:24 | -7.93821 | 112.71398 | 1736 ft | 12 kts | 76° |
| 2026-04-25 09:24 | -7.93800 | 112.71486 | 1736 ft | 13 kts | 77° |
| 2026-04-25 09:25 | -7.93778 | 112.71581 | 1734 ft | 14 kts | 77° |
| 2026-04-25 09:25 | -7.93796 | 112.71656 | 1735 ft | 11 kts | 162° |
| 2026-04-25 09:25 | -7.93876 | 112.71669 | 1737 ft | 15 kts | 165° |
| 2026-04-25 09:25 | -7.93962 | 112.71711 | 1738 ft | 7 kts | 197° |
| 2026-04-25 09:26 | -7.93943 | 112.71685 | 1731 ft | 5 kts | 334° |
| 2026-04-25 09:26 | -7.93919 | 112.71678 | 1735 ft | 0 kts | 345° |
| 2026-04-25 09:26 | -7.93901 | 112.71673 | 1737 ft | 15 kts | 345° |
| 2026-04-25 09:27 | -7.93529 | 112.71581 | 1735 ft | 92 kts | 347° |
| 2026-04-25 09:27 | -7.92704 | 112.71382 | 1733 ft | 149 kts | 346° |
| 2026-04-25 09:27 | -7.91609 | 112.71112 | 2117 ft | 166 kts | 348° |
| 2026-04-25 09:27 | -7.90493 | 112.70826 | 2830 ft | 165 kts | 348° |
| 2026-04-25 09:28 | -7.89389 | 112.70535 | 3525 ft | 164 kts | 348° |
| 2026-04-25 09:28 | -7.88240 | 112.70230 | 3823 ft | 181 kts | 348° |
| 2026-04-25 09:28 | -7.86918 | 112.70106 | 4006 ft | 202 kts | 5° |
| 2026-04-25 09:28 | -7.85463 | 112.70391 | 4190 ft | 225 kts | 15° |
| 2026-04-25 09:29 | -7.83871 | 112.70814 | 4482 ft | 249 kts | 15° |
| 2026-04-25 09:29 | -7.82121 | 112.71274 | 4909 ft | 269 kts | 15° |
| 2026-04-25 09:29 | -7.80285 | 112.71756 | 5663 ft | 275 kts | 15° |
| 2026-04-25 09:29 | -7.78420 | 112.72249 | 6486 ft | 279 kts | 15° |
| 2026-04-25 09:30 | -7.76536 | 112.72745 | 7295 ft | 282 kts | 15° |
| 2026-04-25 09:30 | -7.74625 | 112.73251 | 8091 ft | 286 kts | 15° |
| 2026-04-25 09:30 | -7.72666 | 112.73643 | 8853 ft | 290 kts | 6° |
| 2026-04-25 09:30 | -7.70643 | 112.73841 | 9604 ft | 294 kts | 6° |
| 2026-04-25 09:31 | -7.68595 | 112.74039 | 10287 ft | 298 kts | 6° |
| 2026-04-25 09:31 | -7.66482 | 112.74246 | 10607 ft | 315 kts | 6° |
| 2026-04-25 09:31 | -7.64223 | 112.74468 | 10742 ft | 337 kts | 6° |
| 2026-04-25 09:31 | -7.61827 | 112.74703 | 10954 ft | 353 kts | 6° |
| 2026-04-25 09:32 | -7.59358 | 112.74945 | 11449 ft | 359 kts | 6° |
| 2026-04-25 09:32 | -7.56887 | 112.75192 | 12009 ft | 363 kts | 6° |
| 2026-04-25 09:32 | -7.54331 | 112.75450 | 12584 ft | 366 kts | 6° |
| 2026-04-25 09:32 | -7.51817 | 112.75701 | 13139 ft | 369 kts | 6° |
| 2026-04-25 09:33 | -7.49255 | 112.75953 | 13694 ft | 372 kts | 6° |
| 2026-04-25 09:33 | -7.46664 | 112.76206 | 14237 ft | 375 kts | 6° |
| 2026-04-25 09:33 | -7.44043 | 112.76461 | 14777 ft | 378 kts | 6° |
| 2026-04-25 09:33 | -7.41399 | 112.76416 | 15288 ft | 383 kts | 353° |
| 2026-04-25 09:34 | -7.38812 | 112.75724 | 15785 ft | 388 kts | 339° |
| 2026-04-25 09:34 | -7.36444 | 112.74393 | 16277 ft | 393 kts | 324° |
| 2026-04-25 09:34 | -7.34449 | 112.72496 | 16757 ft | 398 kts | 310° |
| 2026-04-25 09:34 | -7.32865 | 112.70194 | 17216 ft | 402 kts | 303° |
| 2026-04-25 09:35 | -7.31347 | 112.67853 | 17694 ft | 405 kts | 304° |
| 2026-04-25 09:35 | -7.29800 | 112.65471 | 18152 ft | 408 kts | 304° |
| 2026-04-25 09:35 | -7.28240 | 112.63075 | 18602 ft | 410 kts | 304° |
| 2026-04-25 09:35 | -7.26666 | 112.60662 | 19048 ft | 413 kts | 304° |
| 2026-04-25 09:36 | -7.25087 | 112.58241 | 19524 ft | 415 kts | 304° |
| 2026-04-25 09:36 | -7.23493 | 112.55800 | 19939 ft | 418 kts | 304° |
| 2026-04-25 09:36 | -7.21891 | 112.53349 | 20367 ft | 420 kts | 304° |
| 2026-04-25 09:36 | -7.20284 | 112.50884 | 20788 ft | 422 kts | 304° |
| 2026-04-25 09:37 | -7.18670 | 112.48404 | 21214 ft | 424 kts | 304° |
| 2026-04-25 09:37 | -7.17048 | 112.45915 | 21610 ft | 427 kts | 304° |
| 2026-04-25 09:37 | -7.15415 | 112.43408 | 22005 ft | 429 kts | 304° |
| 2026-04-25 09:37 | -7.13774 | 112.40888 | 22397 ft | 431 kts | 304° |
| 2026-04-25 09:38 | -7.12125 | 112.38358 | 22765 ft | 433 kts | 304° |
| 2026-04-25 09:38 | -7.10464 | 112.35814 | 23112 ft | 436 kts | 304° |
| 2026-04-25 09:38 | -7.08792 | 112.33259 | 23463 ft | 438 kts | 304° |
| 2026-04-25 09:38 | -7.07110 | 112.30689 | 23799 ft | 441 kts | 304° |
| 2026-04-25 09:39 | -7.05420 | 112.28106 | 24137 ft | 443 kts | 304° |
| 2026-04-25 09:39 | -7.03724 | 112.25509 | 24463 ft | 445 kts | 304° |
| 2026-04-25 09:39 | -7.02020 | 112.22896 | 24779 ft | 447 kts | 304° |
| 2026-04-25 09:40 | -6.98582 | 112.17641 | 25393 ft | 451 kts | 304° |
| 2026-04-25 09:40 | -6.96852 | 112.15003 | 25686 ft | 453 kts | 304° |
| 2026-04-25 09:40 | -6.95113 | 112.12346 | 25975 ft | 456 kts | 304° |
| 2026-04-25 09:40 | -6.93365 | 112.09669 | 26250 ft | 458 kts | 304° |
| 2026-04-25 09:41 | -6.91618 | 112.06988 | 26530 ft | 460 kts | 304° |
| 2026-04-25 09:41 | -6.89856 | 112.04287 | 26806 ft | 462 kts | 304° |
| 2026-04-25 09:41 | -6.88087 | 112.01581 | 27082 ft | 464 kts | 304° |
| 2026-04-25 09:41 | -6.86333 | 111.98904 | 27356 ft | 465 kts | 304° |
| 2026-04-25 09:42 | -6.84547 | 111.96180 | 27618 ft | 467 kts | 304° |
| 2026-04-25 09:42 | -6.82753 | 111.93445 | 27877 ft | 469 kts | 304° |
| 2026-04-25 09:42 | -6.80952 | 111.90699 | 28130 ft | 471 kts | 304° |
| 2026-04-25 09:42 | -6.79144 | 111.87940 | 28380 ft | 473 kts | 304° |
| 2026-04-25 09:43 | -6.77333 | 111.85172 | 28616 ft | 474 kts | 304° |
| 2026-04-25 09:43 | -6.75517 | 111.82393 | 28847 ft | 476 kts | 304° |
| 2026-04-25 09:43 | -6.73694 | 111.79604 | 29063 ft | 478 kts | 304° |
| 2026-04-25 09:43 | -6.71864 | 111.76806 | 29277 ft | 480 kts | 304° |
| 2026-04-25 09:44 | -6.70022 | 111.73998 | 29492 ft | 482 kts | 304° |
| 2026-04-25 09:44 | -6.68174 | 111.71180 | 29699 ft | 484 kts | 304° |
| 2026-04-25 09:44 | -6.66319 | 111.68351 | 29910 ft | 485 kts | 304° |
| 2026-04-25 09:44 | -6.64459 | 111.65516 | 30184 ft | 485 kts | 304° |
| 2026-04-25 09:45 | -6.62606 | 111.62685 | 30502 ft | 484 kts | 304° |
| 2026-04-25 09:45 | -6.60921 | 111.59761 | 30817 ft | 484 kts | 298° |
| 2026-04-25 09:45 | -6.59368 | 111.56755 | 31126 ft | 483 kts | 298° |
| 2026-04-25 09:45 | -6.57841 | 111.53804 | 31451 ft | 482 kts | 298° |
| 2026-04-25 09:46 | -6.56286 | 111.50815 | 31783 ft | 480 kts | 299° |
| 2026-04-25 09:46 | -6.54738 | 111.47842 | 32096 ft | 479 kts | 299° |
| 2026-04-25 09:46 | -6.53193 | 111.44876 | 32411 ft | 478 kts | 299° |
| 2026-04-25 09:46 | -6.51655 | 111.41922 | 32711 ft | 477 kts | 299° |
| 2026-04-25 09:47 | -6.50118 | 111.38961 | 33038 ft | 476 kts | 299° |
| 2026-04-25 09:47 | -6.48588 | 111.36012 | 33361 ft | 475 kts | 300° |
| 2026-04-25 09:47 | -6.47065 | 111.33072 | 33685 ft | 474 kts | 300° |
| 2026-04-25 09:47 | -6.45541 | 111.30135 | 33835 ft | 473 kts | 300° |
| 2026-04-25 09:48 | -6.42501 | 111.24288 | 33859 ft | 471 kts | 300° |
| 2026-04-25 09:48 | -6.39976 | 111.19448 | 33859 ft | 470 kts | 300° |
| 2026-04-25 09:49 | -6.36941 | 111.13616 | 33860 ft | 471 kts | 300° |
| 2026-04-25 09:49 | -6.33895 | 111.07797 | 33859 ft | 470 kts | 301° |
| 2026-04-25 09:50 | -6.30268 | 111.01088 | 33858 ft | 470 kts | 301° |
| 2026-04-25 09:50 | -6.27645 | 110.96253 | 33856 ft | 470 kts | 301° |
| 2026-04-25 09:51 | -6.24531 | 110.90480 | 33851 ft | 470 kts | 301° |
| 2026-04-25 09:51 | -6.21437 | 110.84701 | 33849 ft | 470 kts | 300° |
| 2026-04-25 09:52 | -6.18361 | 110.78953 | 33847 ft | 470 kts | 300° |
| 2026-04-25 09:52 | -6.15262 | 110.73169 | 33848 ft | 470 kts | 300° |
| 2026-04-25 09:53 | -6.12148 | 110.67393 | 33850 ft | 470 kts | 300° |
| 2026-04-25 09:53 | -6.09036 | 110.61615 | 33854 ft | 470 kts | 300° |
| 2026-04-25 09:54 | -6.05918 | 110.55831 | 33856 ft | 471 kts | 300° |
| 2026-04-25 09:54 | -6.02798 | 110.50043 | 33857 ft | 471 kts | 300° |
| 2026-04-25 09:55 | -5.99681 | 110.44249 | 33860 ft | 471 kts | 300° |
| 2026-04-25 09:55 | -5.97121 | 110.38188 | 33859 ft | 475 kts | 285° |
| 2026-04-25 09:56 | -5.96505 | 110.31583 | 33855 ft | 478 kts | 271° |
| 2026-04-25 09:56 | -5.96525 | 110.24907 | 33853 ft | 478 kts | 271° |
| 2026-04-25 09:57 | -5.96509 | 110.18224 | 33854 ft | 479 kts | 271° |
| 2026-04-25 09:57 | -5.96495 | 110.11539 | 33855 ft | 478 kts | 271° |
| 2026-04-25 09:58 | -5.96490 | 110.04854 | 33853 ft | 479 kts | 271° |
| 2026-04-25 09:58 | -5.96490 | 109.98169 | 33851 ft | 479 kts | 271° |
| 2026-04-25 09:59 | -5.96492 | 109.91483 | 33849 ft | 479 kts | 271° |
| 2026-04-25 09:59 | -5.96492 | 109.84841 | 33849 ft | 479 kts | 271° |
| 2026-04-25 10:00 | -5.96485 | 109.78147 | 33851 ft | 479 kts | 271° |
| 2026-04-25 10:00 | -5.96475 | 109.71452 | 33854 ft | 479 kts | 271° |
| 2026-04-25 10:01 | -5.96466 | 109.64752 | 33859 ft | 480 kts | 271° |
| 2026-04-25 10:01 | -5.96459 | 109.58051 | 33863 ft | 479 kts | 271° |
| 2026-04-25 10:02 | -5.96450 | 109.51359 | 33861 ft | 479 kts | 271° |
| 2026-04-25 10:02 | -5.96440 | 109.44673 | 33861 ft | 479 kts | 271° |
| 2026-04-25 10:03 | -5.96428 | 109.37990 | 33860 ft | 478 kts | 271° |
| 2026-04-25 10:03 | -5.96418 | 109.31308 | 33862 ft | 478 kts | 271° |
| 2026-04-25 10:04 | -5.96416 | 109.24627 | 33864 ft | 478 kts | 271° |
| 2026-04-25 10:04 | -5.96404 | 109.17950 | 33865 ft | 478 kts | 271° |
| 2026-04-25 10:05 | -5.96388 | 109.11318 | 33867 ft | 478 kts | 271° |
| 2026-04-25 10:05 | -5.96376 | 109.04640 | 33869 ft | 478 kts | 271° |
| 2026-04-25 10:06 | -5.96358 | 108.97962 | 33872 ft | 478 kts | 271° |
| 2026-04-25 10:06 | -5.96340 | 108.91291 | 33872 ft | 478 kts | 270° |
| 2026-04-25 10:07 | -5.96328 | 108.84624 | 33873 ft | 477 kts | 270° |
| 2026-04-25 10:07 | -5.96308 | 108.77959 | 33874 ft | 477 kts | 270° |
| 2026-04-25 10:08 | -5.96289 | 108.71292 | 33872 ft | 477 kts | 270° |
| 2026-04-25 10:08 | -5.96274 | 108.64623 | 33872 ft | 478 kts | 270° |
| 2026-04-25 10:09 | -5.96253 | 108.57952 | 33873 ft | 478 kts | 270° |
| 2026-04-25 10:09 | -5.96228 | 108.51268 | 33872 ft | 478 kts | 270° |
| 2026-04-25 10:10 | -5.96216 | 108.44642 | 33868 ft | 478 kts | 270° |
| 2026-04-25 10:10 | -5.96214 | 108.37972 | 33866 ft | 477 kts | 270° |
| 2026-04-25 10:11 | -5.96215 | 108.31303 | 33865 ft | 477 kts | 270° |
| 2026-04-25 10:11 | -5.96206 | 108.24635 | 33864 ft | 477 kts | 270° |
| 2026-04-25 10:12 | -5.96192 | 108.17970 | 33863 ft | 477 kts | 270° |
| 2026-04-25 10:13 | -5.96177 | 108.07982 | 33862 ft | 477 kts | 270° |
| 2026-04-25 10:13 | -5.96173 | 108.01304 | 32921 ft | 487 kts | 270° |
| 2026-04-25 10:13 | -5.96168 | 107.97829 | 31684 ft | 496 kts | 270° |
| 2026-04-25 10:14 | -5.96166 | 107.94345 | 30592 ft | 501 kts | 269° |
| 2026-04-25 10:14 | -5.96168 | 107.90912 | 29985 ft | 495 kts | 269° |
| 2026-04-25 10:14 | -5.96171 | 107.87472 | 29286 ft | 490 kts | 269° |
| 2026-04-25 10:14 | -5.96173 | 107.84065 | 28602 ft | 485 kts | 269° |
| 2026-04-25 10:15 | -5.96174 | 107.80690 | 27938 ft | 480 kts | 269° |
| 2026-04-25 10:15 | -5.96172 | 107.77356 | 27291 ft | 474 kts | 270° |
| 2026-04-25 10:15 | -5.96168 | 107.74101 | 27044 ft | 455 kts | 270° |
| 2026-04-25 10:15 | -5.96165 | 107.70977 | 26247 ft | 442 kts | 270° |
| 2026-04-25 10:16 | -5.96162 | 107.67922 | 25383 ft | 432 kts | 270° |
| 2026-04-25 10:16 | -5.96160 | 107.64959 | 24819 ft | 416 kts | 270° |
| 2026-04-25 10:16 | -5.96162 | 107.62076 | 24261 ft | 417 kts | 270° |
| 2026-04-25 10:16 | -5.96166 | 107.59162 | 23668 ft | 416 kts | 270° |
| 2026-04-25 10:17 | -5.96168 | 107.56261 | 23095 ft | 414 kts | 270° |
| 2026-04-25 10:17 | -5.96170 | 107.53378 | 22523 ft | 412 kts | 270° |
| 2026-04-25 10:17 | -5.96171 | 107.50513 | 21953 ft | 410 kts | 270° |
| 2026-04-25 10:17 | -5.96173 | 107.47659 | 21386 ft | 408 kts | 270° |
| 2026-04-25 10:18 | -5.96171 | 107.44817 | 20822 ft | 406 kts | 270° |
| 2026-04-25 10:18 | -5.96169 | 107.41988 | 20258 ft | 404 kts | 270° |
| 2026-04-25 10:18 | -5.96167 | 107.39169 | 19700 ft | 403 kts | 270° |
| 2026-04-25 10:18 | -5.96163 | 107.36368 | 19175 ft | 400 kts | 270° |
| 2026-04-25 10:19 | -5.96161 | 107.33595 | 18896 ft | 392 kts | 270° |
| 2026-04-25 10:19 | -5.96159 | 107.30893 | 18625 ft | 383 kts | 270° |
| 2026-04-25 10:19 | -5.96159 | 107.28233 | 18249 ft | 379 kts | 270° |
| 2026-04-25 10:19 | -5.96155 | 107.25590 | 17779 ft | 377 kts | 271° |
| 2026-04-25 10:20 | -5.96149 | 107.22960 | 17307 ft | 376 kts | 271° |
| 2026-04-25 10:20 | -5.96145 | 107.20340 | 16839 ft | 374 kts | 270° |
| 2026-04-25 10:20 | -5.96141 | 107.17739 | 16436 ft | 371 kts | 270° |
| 2026-04-25 10:20 | -5.96138 | 107.15152 | 15989 ft | 368 kts | 270° |
| 2026-04-25 10:21 | -5.96134 | 107.12585 | 15519 ft | 367 kts | 270° |
| 2026-04-25 10:21 | -5.96131 | 107.10068 | 15153 ft | 363 kts | 270° |
| 2026-04-25 10:21 | -5.96127 | 107.07531 | 14706 ft | 361 kts | 270° |
| 2026-04-25 10:21 | -5.96122 | 107.05021 | 14317 ft | 358 kts | 270° |
| 2026-04-25 10:22 | -5.96117 | 107.02527 | 13880 ft | 356 kts | 270° |
| 2026-04-25 10:22 | -5.96114 | 107.00850 | 13603 ft | 355 kts | 270° |
| 2026-04-25 10:22 | -5.96110 | 106.97556 | 13013 ft | 350 kts | 270° |
| 2026-04-25 10:22 | -5.96105 | 106.95164 | 12300 ft | 345 kts | 270° |
| 2026-04-25 10:23 | -5.96098 | 106.92768 | 11574 ft | 340 kts | 270° |
| 2026-04-25 10:23 | -5.96090 | 106.90412 | 11043 ft | 336 kts | 270° |
| 2026-04-25 10:23 | -5.96082 | 106.88077 | 10559 ft | 334 kts | 270° |
| 2026-04-25 10:23 | -5.96075 | 106.85756 | 10216 ft | 328 kts | 270° |
| 2026-04-25 10:24 | -5.96068 | 106.83498 | 10051 ft | 317 kts | 270° |
| 2026-04-25 10:24 | -5.96063 | 106.81319 | 9924 ft | 306 kts | 270° |
| 2026-04-25 10:24 | -5.96144 | 106.79221 | 10004 ft | 300 kts | 261° |
| 2026-04-25 10:24 | -5.96685 | 106.77198 | 9706 ft | 303 kts | 248° |
| 2026-04-25 10:25 | -5.97484 | 106.75245 | 9350 ft | 301 kts | 247° |
| 2026-04-25 10:25 | -5.98283 | 106.73299 | 8976 ft | 300 kts | 247° |
| 2026-04-25 10:25 | -5.99072 | 106.71367 | 8606 ft | 298 kts | 247° |
| 2026-04-25 10:25 | -5.99857 | 106.69439 | 8218 ft | 298 kts | 247° |
| 2026-04-25 10:26 | -6.00638 | 106.67522 | 7809 ft | 294 kts | 247° |
| 2026-04-25 10:26 | -6.01411 | 106.65624 | 7244 ft | 294 kts | 247° |
| 2026-04-25 10:26 | -6.02176 | 106.63736 | 6935 ft | 290 kts | 247° |
| 2026-04-25 10:26 | -6.02933 | 106.61860 | 6519 ft | 289 kts | 247° |
| 2026-04-25 10:27 | -6.03676 | 106.60017 | 6354 ft | 279 kts | 247° |
| 2026-04-25 10:27 | -6.04391 | 106.58249 | 6208 ft | 268 kts | 247° |
| 2026-04-25 10:27 | -6.05086 | 106.56535 | 5926 ft | 263 kts | 247° |
| 2026-04-25 10:27 | -6.05775 | 106.54833 | 5559 ft | 263 kts | 247° |
| 2026-04-25 10:28 | -6.06463 | 106.53133 | 5205 ft | 262 kts | 247° |
| 2026-04-25 10:28 | -6.07145 | 106.51443 | 4863 ft | 261 kts | 247° |
| 2026-04-25 10:28 | -6.07826 | 106.49757 | 4521 ft | 259 kts | 247° |
| 2026-04-25 10:28 | -6.08502 | 106.48081 | 4174 ft | 258 kts | 247° |
| 2026-04-25 10:29 | -6.09179 | 106.46402 | 3721 ft | 263 kts | 247° |
| 2026-04-25 10:29 | -6.09862 | 106.44709 | 3454 ft | 258 kts | 247° |
| 2026-04-25 10:29 | -6.10712 | 106.43187 | 3302 ft | 245 kts | 223° |
| 2026-04-25 10:29 | -6.12137 | 106.42368 | 3117 ft | 235 kts | 188° |
| 2026-04-25 10:30 | -6.13721 | 106.42451 | 2823 ft | 227 kts | 161° |
| 2026-04-25 10:30 | -6.14733 | 106.42698 | 2632 ft | 227 kts | 164° |
| 2026-04-25 10:30 | -6.16682 | 106.43380 | 2266 ft | 218 kts | 135° |
| 2026-04-25 10:30 | -6.17450 | 106.44583 | 2156 ft | 199 kts | 99° |
| 2026-04-25 10:31 | -6.17500 | 106.45909 | 2157 ft | 191 kts | 85° |
| 2026-04-25 10:31 | -6.17458 | 106.47241 | 2149 ft | 190 kts | 86° |
| 2026-04-25 10:31 | -6.17425 | 106.48566 | 2138 ft | 189 kts | 86° |
| 2026-04-25 10:31 | -6.17202 | 106.49861 | 2130 ft | 188 kts | 67° |
| 2026-04-25 10:32 | -6.16711 | 106.51075 | 2116 ft | 188 kts | 67° |
| 2026-04-25 10:32 | -6.16226 | 106.52294 | 2113 ft | 188 kts | 67° |
| 2026-04-25 10:32 | -6.15745 | 106.53503 | 2128 ft | 181 kts | 67° |
| 2026-04-25 10:32 | -6.15313 | 106.54598 | 2127 ft | 157 kts | 67° |
| 2026-04-25 10:33 | -6.14923 | 106.55582 | 1985 ft | 148 kts | 67° |
| 2026-04-25 10:33 | -6.14548 | 106.56532 | 1777 ft | 144 kts | 67° |
| 2026-04-25 10:33 | -6.14179 | 106.57462 | 1575 ft | 143 kts | 66° |
| 2026-04-25 10:33 | -6.13815 | 106.58376 | 1377 ft | 140 kts | 66° |
| 2026-04-25 10:34 | -6.13450 | 106.59288 | 1189 ft | 140 kts | 65° |
| 2026-04-25 10:34 | -6.13087 | 106.60195 | 1013 ft | 140 kts | 65° |
| 2026-04-25 10:34 | -6.12725 | 106.61100 | 822 ft | 139 kts | 65° |
| 2026-04-25 10:34 | -6.12366 | 106.62012 | 625 ft | 140 kts | 66° |
| 2026-04-25 10:35 | -6.12009 | 106.62919 | 414 ft | 141 kts | 66° |
| 2026-04-25 10:35 | -6.11642 | 106.63831 | 237 ft | 141 kts | 66° |
| 2026-04-25 10:35 | -6.11275 | 106.64742 | 57 ft | 140 kts | 66° |
| 2026-04-25 10:35 | -6.10954 | 106.65535 | 42 ft | 99 kts | 68° |
| 2026-04-25 10:36 | -6.10765 | 106.66020 | 42 ft | 53 kts | 68° |
| 2026-04-25 10:36 | -6.10659 | 106.66284 | 38 ft | 31 kts | 68° |
| 2026-04-25 10:36 | -6.10632 | 106.66480 | 38 ft | 20 kts | 100° |
| 2026-04-25 10:36 | -6.10655 | 106.66611 | 36 ft | 11 kts | 101° |
| 2026-04-25 10:37 | -6.10700 | 106.66670 | 38 ft | 10 kts | 158° |
| 2026-04-25 10:37 | -6.10765 | 106.66687 | 38 ft | 9 kts | 182° |
| 2026-04-25 10:37 | -6.10804 | 106.66651 | 37 ft | 8 kts | 239° |
| 2026-04-25 10:37 | -6.10845 | 106.66550 | 37 ft | 21 kts | 248° |
| 2026-04-25 10:38 | -6.10902 | 106.66407 | 38 ft | 23 kts | 248° |
| 2026-04-25 10:38 | -6.10956 | 106.66272 | 37 ft | 19 kts | 248° |
| 2026-04-25 10:38 | -6.10997 | 106.66169 | 37 ft | 13 kts | 248° |
| 2026-04-25 10:38 | -6.11029 | 106.66090 | 39 ft | 11 kts | 249° |
| 2026-04-25 10:39 | -6.11061 | 106.66007 | 38 ft | 15 kts | 248° |
| 2026-04-25 10:39 | -6.11099 | 106.65913 | 39 ft | 14 kts | 249° |
| 2026-04-25 10:39 | -6.11132 | 106.65828 | 39 ft | 13 kts | 248° |
| 2026-04-25 10:39 | -6.11168 | 106.65739 | 36 ft | 13 kts | 248° |
| 2026-04-25 10:40 | -6.11202 | 106.65653 | 39 ft | 14 kts | 249° |
| 2026-04-25 10:40 | -6.11247 | 106.65540 | 39 ft | 20 kts | 248° |
| 2026-04-25 10:40 | -6.11285 | 106.65446 | 36 ft | 24 kts | 248° |
| 2026-04-25 10:40 | -6.11353 | 106.65276 | 37 ft | 29 kts | 248° |
| 2026-04-25 10:41 | -6.11419 | 106.65108 | 39 ft | 18 kts | 249° |
| 2026-04-25 10:41 | -6.11479 | 106.64956 | 39 ft | 17 kts | 248° |
| 2026-04-25 10:41 | -6.11507 | 106.64887 | 39 ft | 16 kts | 248° |
| 2026-04-25 10:41 | -6.11545 | 106.64794 | 38 ft | 11 kts | 247° |
| 2026-04-25 10:42 | -6.11595 | 106.64764 | 40 ft | 8 kts | 157° |
| 2026-04-25 10:42 | -6.11655 | 106.64789 | 42 ft | 12 kts | 158° |
| 2026-04-25 10:42 | -6.11741 | 106.64795 | 42 ft | 12 kts | 205° |
| 2026-04-25 10:42 | -6.11797 | 106.64736 | 41 ft | 11 kts | 226° |
| 2026-04-25 10:43 | -6.11852 | 106.64686 | 41 ft | 9 kts | 219° |
| 2026-04-25 10:43 | -6.11900 | 106.64649 | 41 ft | 9 kts | 214° |
| 2026-04-25 10:43 | -6.11955 | 106.64649 | 40 ft | 8 kts | 158° |
| 2026-04-25 10:43 | -6.12007 | 106.64670 | 39 ft | 8 kts | 157° |
| 2026-04-25 10:44 | -6.12058 | 106.64692 | 39 ft | 8 kts | 157° |
| 2026-04-25 10:44 | -6.12105 | 106.64711 | 38 ft | 7 kts | 157° |
| 2026-04-25 10:44 | -6.12146 | 106.64729 | 36 ft | 6 kts | 157° |
| 2026-04-25 10:44 | -6.12182 | 106.64744 | 38 ft | 5 kts | 158° |
| 2026-04-25 10:45 | -6.12235 | 106.64763 | 38 ft | 13 kts | 161° |
| 2026-04-25 10:45 | -6.12315 | 106.64775 | 38 ft | 11 kts | 181° |
| 2026-04-25 10:45 | -6.12382 | 106.64794 | 38 ft | 9 kts | 159° |
| 2026-04-25 10:45 | -6.12440 | 106.64817 | 38 ft | 8 kts | 158° |
| 2026-04-25 10:46 | -6.12480 | 106.64847 | 38 ft | 6 kts | 107° |
| 2026-04-25 10:46 | -6.12465 | 106.64896 | 38 ft | 5 kts | 69° |
| 2026-04-25 10:46 | -6.12454 | 106.64924 | 38 ft | 3 kts | 68° |
| 2026-04-25 10:46 | -6.12452 | 106.64929 | 38 ft | 0 kts | 68° |